Time;durP1;ratioP1;P1;durP2;ratioP2;P2;SDS_P1;SDS_P2;PMS_P1;PMS_P2;Temp;Humidity;BMP_temperature;BMP_pressure;BME280_temperature;BME280_humidity;BME280_pressure;Samples;Min_cycle;Max_cycle;Signal;HPM_P1;HPM_P2
2022/05/03 00:01:10;;;;;;;1.52;0.80;;;23.00;51.10;;;;;;5003771;28;20088;-52
2022/05/03 00:03:46;;;;;;;1.33;0.70;;;22.90;51.10;;;;;;5007108;28;20121;-45
2022/05/03 00:06:21;;;;;;;1.50;0.70;;;22.80;51.10;;;;;;5005297;28;20054;-51
2022/05/03 00:08:54;;;;;;;2.75;0.70;;;22.80;51.10;;;;;;5019365;28;20097;-48
2022/05/03 00:11:31;;;;;;;1.10;0.70;;;22.70;51.00;;;;;;5019423;28;20029;-48
2022/05/03 00:14:11;;;;;;;0.70;0.70;;;22.70;51.10;;;;;;5024759;28;20034;-51
2022/05/03 00:16:37;;;;;;;0.70;0.70;;;22.60;51.10;;;;;;5034248;28;20055;-47
2022/05/03 00:19:07;;;;;;;1.58;0.68;;;22.60;51.10;;;;;;5037611;28;20038;-48
2022/05/03 00:21:34;;;;;;;1.70;0.80;;;22.50;51.10;;;;;;5044961;28;20041;-47
2022/05/03 00:24:01;;;;;;;1.23;0.65;;;22.50;51.00;;;;;;5036150;28;20040;-52
2022/05/03 00:26:28;;;;;;;2.33;0.73;;;22.50;51.20;;;;;;5047777;28;20077;-51
2022/05/03 00:28:54;;;;;;;;;;;22.50;51.20;;;;;;5096500;28;20146;-47
2022/05/03 00:31:21;;;;;;;1.38;0.77;;;22.40;51.20;;;;;;5103111;28;19919;-49
2022/05/03 00:33:47;;;;;;;1.98;0.95;;;22.40;51.10;;;;;;5102232;28;20039;-49
2022/05/03 00:36:13;;;;;;;1.35;0.80;;;22.30;51.20;;;;;;5113126;28;20043;-49
2022/05/03 00:38:39;;;;;;;1.92;0.70;;;22.30;51.50;;;;;;5108939;28;20054;-49
2022/05/03 00:41:05;;;;;;;1.23;0.80;;;22.30;51.70;;;;;;5110892;28;20028;-50
2022/05/03 00:43:39;;;;;;;1.35;0.80;;;22.30;51.90;;;;;;5096843;28;20026;-48
2022/05/03 00:46:16;;;;;;;1.00;0.65;;;22.30;52.00;;;;;;5087999;28;20011;-49
2022/05/03 00:48:54;;;;;;;1.30;0.70;;;22.30;52.30;;;;;;5108145;28;20067;-48
2022/05/03 00:51:36;;;;;;;1.42;0.65;;;22.30;52.50;;;;;;5104596;28;20299;-48
2022/05/03 00:54:17;;;;;;;1.02;0.82;;;22.30;52.60;;;;;;5109800;28;20054;-50
2022/05/03 00:56:43;;;;;;;3.55;0.88;;;22.30;52.80;;;;;;5067601;28;20074;-47
2022/05/03 00:59:28;;;;;;;1.00;0.65;;;22.30;52.90;;;;;;5110961;28;20031;-46
2022/05/03 01:02:01;;;;;;;2.83;0.80;;;22.30;53.10;;;;;;5106560;28;20059;-50
2022/05/03 01:04:45;;;;;;;2.50;0.90;;;22.30;53.20;;;;;;5098474;28;20122;-49
2022/05/03 01:07:21;;;;;;;2.08;0.88;;;22.30;53.30;;;;;;5099509;28;20762;-49
2022/05/03 01:10:03;;;;;;;3.67;1.10;;;22.30;53.40;;;;;;5091787;28;20054;-51
2022/05/03 01:12:42;;;;;;;1.85;0.82;;;22.30;53.50;;;;;;5115489;28;20029;-48
2022/05/03 01:15:18;;;;;;;1.63;0.68;;;22.30;53.60;;;;;;5109120;28;20028;-48
2022/05/03 01:17:51;;;;;;;2.00;0.90;;;22.30;53.60;;;;;;5094722;28;20027;-50
2022/05/03 01:20:26;;;;;;;1.88;0.90;;;22.30;53.70;;;;;;5112620;28;20028;-47
2022/05/03 01:22:56;;;;;;;1.38;0.70;;;22.30;53.80;;;;;;5110902;28;20087;-46
2022/05/03 01:25:51;;;;;;;2.13;0.85;;;22.30;53.80;;;;;;5111861;28;20076;-47
2022/05/03 01:28:28;;;;;;;1.73;0.93;;;22.30;53.80;;;;;;5104229;28;20027;-50
2022/05/03 01:30:54;;;;;;;2.10;0.90;;;22.30;53.90;;;;;;5091475;28;20044;-49
2022/05/03 01:33:34;;;;;;;1.35;0.80;;;22.30;54.00;;;;;;5083845;28;20043;-50
2022/05/03 01:36:04;;;;;;;2.95;0.93;;;22.40;54.00;;;;;;5074270;28;20101;-48
2022/05/03 01:38:56;;;;;;;2.03;0.95;;;22.40;54.10;;;;;;5106398;28;20050;-49
2022/05/03 01:41:33;;;;;;;2.30;0.90;;;22.40;54.10;;;;;;5091739;28;20143;-49
2022/05/03 01:44:16;;;;;;;2.70;1.00;;;22.40;54.20;;;;;;5111164;28;20215;-46
2022/05/03 01:46:42;;;;;;;2.17;1.00;;;22.40;54.20;;;;;;5085930;28;20290;-51
2022/05/03 01:53:10;;;;;;;2.75;0.98;;;22.40;54.30;;;;;;5078051;28;20059;-48
2022/05/03 01:55:58;;;;;;;2.28;0.93;;;22.40;54.30;;;;;;5061383;28;20043;-50
2022/05/03 01:58:39;;;;;;;3.10;1.05;;;22.40;54.40;;;;;;5076931;28;20092;-48
2022/05/03 02:01:14;;;;;;;2.58;1.10;;;22.40;55.00;;;;;;5077939;28;20083;-49
2022/05/03 02:03:50;;;;;;;2.95;1.17;;;22.40;54.50;;;;;;5078732;28;20409;-51
2022/05/03 02:06:22;;;;;;;3.20;1.30;;;22.50;55.10;;;;;;5078198;28;20056;-52
2022/05/03 02:09:05;;;;;;;3.30;1.20;;;22.50;54.50;;;;;;5061045;28;20036;-46
2022/05/03 02:11:47;;;;;;;4.03;1.20;;;22.50;54.60;;;;;;5077013;28;20033;-49
2022/05/03 02:14:44;;;;;;;3.22;0.93;;;22.50;54.60;;;;;;5058739;28;20044;-48
2022/05/03 02:17:18;;;;;;;3.13;1.27;;;22.50;54.60;;;;;;5054756;28;20064;-51
2022/05/03 02:19:51;;;;;;;3.67;1.30;;;22.50;54.60;;;;;;5078418;28;20767;-47
2022/05/03 02:22:34;;;;;;;5.32;1.38;;;22.50;54.60;;;;;;5074085;28;20060;-53
2022/05/03 02:25:36;;;;;;;3.90;1.25;;;22.50;54.60;;;;;;5078358;28;20090;-52
2022/05/03 02:28:13;;;;;;;2.75;1.00;;;22.50;54.60;;;;;;5095344;28;20418;-51
2022/05/03 02:30:39;;;;;;;3.72;0.93;;;22.50;54.70;;;;;;5105465;28;20047;-49
2022/05/03 02:33:19;;;;;;;2.50;1.10;;;22.50;54.60;;;;;;5090078;28;20028;-50
2022/05/03 02:35:49;;;;;;;2.47;1.17;;;22.50;54.70;;;;;;5109999;28;20028;-48
2022/05/03 02:38:19;;;;;;;4.55;1.27;;;22.50;54.70;;;;;;5101062;28;20058;-48
2022/05/03 02:40:45;;;;;;;2.85;1.65;;;22.50;54.70;;;;;;5115712;28;20041;-47
2022/05/03 02:43:13;;;;;;;1.92;1.20;;;22.50;54.70;;;;;;5112162;28;20026;-48
2022/05/03 02:45:41;;;;;;;4.25;1.60;;;22.50;54.70;;;;;;5071546;28;20533;-49
2022/05/03 02:48:15;;;;;;;3.55;1.30;;;22.50;54.70;;;;;;5104754;28;20594;-46
2022/05/03 02:50:57;;;;;;;3.58;1.40;;;22.60;54.80;;;;;;5118666;28;20043;-49
2022/05/03 02:53:44;;;;;;;4.80;1.25;;;22.60;54.80;;;;;;5100683;28;20030;-48
2022/05/03 02:56:26;;;;;;;4.38;1.73;;;22.60;54.80;;;;;;5083005;28;20064;-49
2022/05/03 02:59:14;;;;;;;3.95;1.55;;;22.60;54.80;;;;;;5076699;28;20123;-52
2022/05/03 03:01:56;;;;;;;7.50;1.50;;;22.60;54.80;;;;;;5091004;28;21731;-50
2022/05/03 03:04:33;;;;;;;9.23;1.70;;;22.60;54.80;;;;;;5095090;28;20127;-51
2022/05/03 03:07:00;;;;;;;4.10;1.30;;;22.60;54.80;;;;;;5104941;28;20044;-53
2022/05/03 03:09:43;;;;;;;5.50;1.60;;;22.60;54.70;;;;;;5099673;28;20065;-52
2022/05/03 03:12:22;;;;;;;3.60;1.52;;;22.60;54.70;;;;;;5098731;28;20031;-50
2022/05/03 03:14:48;;;;;;;2.67;1.35;;;22.60;54.70;;;;;;5087398;28;20063;-57
2022/05/03 03:17:23;;;;;;;3.03;1.30;;;22.60;55.30;;;;;;5071340;28;20025;-54
2022/05/03 03:19:55;;;;;;;5.75;1.75;;;22.60;54.80;;;;;;5106639;28;20031;-53
2022/05/03 03:22:21;;;;;;;3.53;1.50;;;22.60;54.60;;;;;;5095240;28;20043;-55
2022/05/03 03:24:48;;;;;;;5.35;1.63;;;22.60;54.60;;;;;;5090144;28;20024;-52
2022/05/03 03:27:14;;;;;;;4.78;1.67;;;22.70;54.60;;;;;;5100984;28;20507;-55
2022/05/03 03:29:41;;;;;;;3.65;1.25;;;22.70;54.50;;;;;;5101909;28;20099;-55
2022/05/03 03:32:08;;;;;;;3.05;1.48;;;22.60;54.50;;;;;;5100738;28;20662;-52
2022/05/03 03:34:35;;;;;;;3.53;1.45;;;22.70;54.40;;;;;;5110151;28;20036;-54
2022/05/03 03:37:01;;;;;;;4.28;1.60;;;22.70;54.40;;;;;;5108153;28;20051;-51
2022/05/03 03:39:33;;;;;;;4.95;1.35;;;22.70;54.30;;;;;;5104145;28;20075;-53
2022/05/03 03:42:01;;;;;;;4.18;1.48;;;22.70;54.30;;;;;;5103115;28;20052;-55
2022/05/03 03:44:28;;;;;;;3.30;1.40;;;22.70;54.20;;;;;;5107868;28;20031;-54
2022/05/03 03:46:55;;;;;;;5.25;1.70;;;22.70;54.20;;;;;;5105480;28;20056;-53
2022/05/03 03:49:21;;;;;;;4.95;1.67;;;22.70;54.20;;;;;;5118718;28;20035;-56
2022/05/03 03:51:47;;;;;;;3.13;1.23;;;22.70;54.20;;;;;;5093173;28;20048;-55
2022/05/03 03:54:13;;;;;;;3.45;1.42;;;22.80;54.20;;;;;;5111309;28;20034;-56
2022/05/03 03:56:39;;;;;;;4.95;1.58;;;22.70;54.10;;;;;;5067617;28;20024;-53
2022/05/03 03:59:05;;;;;;;2.92;1.52;;;22.70;54.20;;;;;;5107590;28;20027;-52
2022/05/03 04:01:31;;;;;;;3.63;1.40;;;22.80;54.20;;;;;;5100727;28;20023;-52
2022/05/03 04:03:58;;;;;;;3.67;1.70;;;22.70;54.70;;;;;;5104522;28;20034;-57
2022/05/03 04:06:24;;;;;;;2.72;1.42;;;22.70;54.20;;;;;;5093989;28;20150;-55
2022/05/03 04:08:50;;;;;;;4.70;1.50;;;22.80;54.20;;;;;;5109820;28;20058;-54
2022/05/03 04:11:16;;;;;;;3.28;1.27;;;22.70;54.20;;;;;;5107176;28;20039;-56
2022/05/03 04:13:45;;;;;;;5.10;1.50;;;22.70;54.10;;;;;;5103799;28;20032;-54
2022/05/03 04:16:11;;;;;;;3.40;1.60;;;22.80;54.20;;;;;;5105326;28;20036;-56
2022/05/03 04:18:46;;;;;;;3.85;1.45;;;22.80;54.10;;;;;;5100433;28;20020;-57
2022/05/03 04:21:13;;;;;;;2.63;1.40;;;22.80;54.10;;;;;;5100013;28;20032;-52
2022/05/03 04:23:39;;;;;;;2.45;1.20;;;22.80;54.10;;;;;;5105810;28;20056;-57
2022/05/03 04:26:05;;;;;;;3.70;1.65;;;22.80;54.10;;;;;;5103915;28;20031;-57
2022/05/03 04:28:32;;;;;;;2.75;1.70;;;22.80;54.10;;;;;;5105253;28;20024;-54
2022/05/03 04:30:58;;;;;;;3.03;1.60;;;22.80;54.10;;;;;;5107888;28;20035;-55
2022/05/03 04:33:24;;;;;;;2.88;1.60;;;22.80;54.10;;;;;;5105442;28;20028;-56
2022/05/03 04:35:50;;;;;;;4.03;1.48;;;22.80;54.10;;;;;;5103865;28;20036;-56
2022/05/03 04:38:16;;;;;;;4.63;1.42;;;22.80;54.10;;;;;;5106783;28;20047;-56
2022/05/03 04:40:42;;;;;;;4.00;1.80;;;22.80;54.10;;;;;;5106335;28;20087;-56
2022/05/03 04:43:08;;;;;;;5.45;1.70;;;22.80;54.10;;;;;;5110368;28;20123;-55
2022/05/03 04:45:34;;;;;;;1.70;1.35;;;22.80;54.10;;;;;;5106289;28;20043;-58
2022/05/03 04:48:00;;;;;;;3.33;1.50;;;22.80;54.10;;;;;;5103297;28;20092;-54
2022/05/03 04:50:26;;;;;;;4.15;1.58;;;22.80;54.10;;;;;;5098304;28;20051;-55
2022/05/03 04:52:52;;;;;;;4.03;1.60;;;22.80;54.10;;;;;;5097211;28;20053;-57
2022/05/03 04:55:19;;;;;;;4.57;1.70;;;22.80;54.00;;;;;;5097959;28;20032;-56
2022/05/03 04:57:45;;;;;;;4.68;2.10;;;22.80;54.00;;;;;;5111626;28;20113;-56
2022/05/03 05:00:11;;;;;;;3.13;1.60;;;22.80;54.00;;;;;;5110345;28;20027;-56
2022/05/03 05:02:37;;;;;;;2.97;1.30;;;22.80;54.00;;;;;;5109141;28;20622;-56
2022/05/03 05:05:04;;;;;;;3.20;1.88;;;22.80;54.00;;;;;;5109647;28;20313;-56
2022/05/03 05:07:30;;;;;;;3.58;1.67;;;22.80;54.00;;;;;;5100273;28;20036;-57
2022/05/03 05:12:41;;;;;;;3.60;1.45;;;22.80;54.00;;;;;;5108092;28;20034;-56
2022/05/03 05:15:07;;;;;;;3.95;1.67;;;22.80;54.00;;;;;;5102595;28;20078;-57
2022/05/03 05:17:34;;;;;;;3.10;1.55;;;22.80;54.00;;;;;;5108520;28;20085;-55
2022/05/03 05:20:00;;;;;;;4.37;1.50;;;22.80;54.00;;;;;;5095681;28;20040;-57
2022/05/03 05:22:26;;;;;;;4.30;1.60;;;22.80;54.00;;;;;;5105696;28;20036;-57
2022/05/03 05:24:52;;;;;;;3.42;1.60;;;22.80;54.00;;;;;;5100465;28;20048;-57
2022/05/03 05:27:18;;;;;;;4.22;2.00;;;22.80;54.00;;;;;;5102203;28;20028;-57
2022/05/03 05:29:44;;;;;;;3.22;1.83;;;22.80;54.00;;;;;;5098810;28;20066;-55
2022/05/03 05:32:10;;;;;;;3.38;1.67;;;22.80;54.00;;;;;;5105689;28;20118;-54
2022/05/03 05:34:37;;;;;;;5.22;1.65;;;22.80;54.00;;;;;;5103157;28;20112;-56
2022/05/03 05:37:03;;;;;;;2.25;1.40;;;22.80;54.00;;;;;;5093882;28;20019;-56
2022/05/03 05:39:29;;;;;;;4.60;1.73;;;22.80;54.00;;;;;;5109897;28;20132;-54
2022/05/03 05:41:56;;;;;;;5.93;1.70;;;22.80;54.00;;;;;;5106917;28;20031;-55
2022/05/03 05:44:22;;;;;;;3.88;1.70;;;22.80;54.00;;;;;;5102358;28;20027;-55
2022/05/03 05:46:49;;;;;;;3.67;2.10;;;22.80;54.00;;;;;;5100344;28;20027;-55
2022/05/03 05:49:15;;;;;;;4.45;1.83;;;22.80;54.00;;;;;;5101501;28;20304;-55
2022/05/03 05:51:41;;;;;;;3.17;1.70;;;22.80;54.00;;;;;;5093015;28;20444;-57
2022/05/03 05:54:07;;;;;;;3.33;1.67;;;22.80;54.00;;;;;;5090308;28;20040;-55
2022/05/03 05:56:33;;;;;;;2.05;1.45;;;22.80;54.00;;;;;;5101717;28;20051;-57
2022/05/03 05:58:59;;;;;;;3.53;1.73;;;22.80;54.00;;;;;;5103603;28;20084;-56
2022/05/03 06:01:26;;;;;;;2.92;1.52;;;22.80;54.00;;;;;;5097404;28;20082;-53
2022/05/03 06:03:52;;;;;;;3.72;2.17;;;22.80;54.00;;;;;;5091171;28;20082;-55
2022/05/03 06:06:18;;;;;;;2.77;1.77;;;22.80;54.00;;;;;;5101491;28;20134;-57
2022/05/03 06:08:44;;;;;;;3.45;1.50;;;22.80;54.00;;;;;;5099002;28;20340;-54
2022/05/03 06:11:10;;;;;;;3.03;1.80;;;22.80;54.10;;;;;;5097404;28;20036;-56
2022/05/03 06:13:37;;;;;;;3.05;1.60;;;22.80;54.00;;;;;;5102396;28;20102;-50
2022/05/03 06:16:09;;;;;;;2.60;1.90;;;22.80;54.00;;;;;;5098157;28;20052;-51
2022/05/03 06:18:36;;;;;;;3.47;1.90;;;22.80;54.00;;;;;;5115282;28;20035;-52
2022/05/03 06:21:05;;;;;;;2.90;1.67;;;22.80;54.10;;;;;;5095337;28;20085;-50
2022/05/03 06:23:31;;;;;;;2.20;1.48;;;22.80;54.10;;;;;;5102129;28;20063;-49
2022/05/03 06:25:58;;;;;;;3.50;1.83;;;22.80;54.00;;;;;;5098667;28;20028;-50
2022/05/03 06:28:24;;;;;;;3.05;1.85;;;22.80;54.10;;;;;;5119116;28;20048;-53
2022/05/03 06:30:50;;;;;;;2.47;1.75;;;22.80;54.10;;;;;;5098543;28;20027;-51
2022/05/03 06:33:17;;;;;;;2.33;1.85;;;22.80;54.00;;;;;;5097149;28;20047;-52
2022/05/03 06:35:43;;;;;;;3.40;1.95;;;22.80;54.00;;;;;;5103157;28;20040;-52
2022/05/03 06:38:09;;;;;;;3.40;1.55;;;22.80;54.10;;;;;;5096710;28;20067;-56
2022/05/03 06:40:35;;;;;;;3.30;1.70;;;22.80;54.10;;;;;;5092794;28;20062;-56
2022/05/03 06:43:01;;;;;;;3.13;1.95;;;22.80;54.10;;;;;;5106767;28;20119;-57
2022/05/03 06:45:27;;;;;;;2.90;1.90;;;22.80;54.10;;;;;;5100945;28;20024;-56
2022/05/03 06:47:53;;;;;;;3.92;1.98;;;22.70;54.00;;;;;;5100658;28;20079;-54
2022/05/03 06:50:20;;;;;;;2.38;1.75;;;22.70;54.00;;;;;;5095174;28;20039;-56
2022/05/03 06:52:48;;;;;;;2.97;1.80;;;22.80;54.10;;;;;;5101261;28;20035;-57
2022/05/03 06:55:14;;;;;;;2.55;1.60;;;22.70;54.10;;;;;;5089668;28;20496;-55
2022/05/03 06:57:40;;;;;;;2.28;1.65;;;22.70;54.10;;;;;;5084453;28;20075;-57
2022/05/03 07:00:08;;;;;;;2.88;2.00;;;22.70;54.10;;;;;;5083407;28;20062;-55
2022/05/03 07:02:34;;;;;;;2.90;1.92;;;22.70;54.10;;;;;;5104824;28;20057;-55
2022/05/03 07:05:00;;;;;;;2.20;1.80;;;22.70;54.10;;;;;;5102761;28;20580;-56
2022/05/03 07:07:27;;;;;;;2.80;1.90;;;22.80;54.10;;;;;;5101805;28;20032;-54
2022/05/03 07:09:53;;;;;;;;;;;22.70;54.10;;;;;;5083712;28;20044;-55
2022/05/03 07:12:19;;;;;;;3.13;1.92;;;22.70;54.10;;;;;;5099287;28;20364;-55
2022/05/03 07:14:46;;;;;;;3.13;1.58;;;22.70;54.10;;;;;;5097599;28;20039;-56
2022/05/03 07:22:45;;;;;;;3.92;1.83;;;22.70;54.10;;;;;;5090308;28;20028;-53
2022/05/03 07:22:46;;;;;;;4.28;2.30;;;22.70;54.10;;;;;;5083126;28;20027;-54
2022/05/03 07:25:13;;;;;;;2.92;1.98;;;22.70;54.10;;;;;;5089369;28;20031;-55
2022/05/03 07:27:39;;;;;;;3.92;1.73;;;22.70;54.10;;;;;;5094932;28;20020;-55
2022/05/03 07:30:05;;;;;;;2.67;1.75;;;22.70;54.10;;;;;;5108308;28;20044;-56
2022/05/03 07:32:31;;;;;;;2.38;1.65;;;22.70;54.10;;;;;;5119630;28;20016;-58
2022/05/03 07:34:57;;;;;;;2.15;1.95;;;22.70;54.20;;;;;;5096562;28;20064;-58
2022/05/03 07:37:24;;;;;;;2.83;1.70;;;22.70;54.20;;;;;;5090144;28;20040;-57
2022/05/03 07:39:50;;;;;;;2.55;1.67;;;22.70;54.30;;;;;;5083548;28;20031;-57
2022/05/03 07:42:16;;;;;;;2.47;1.70;;;22.70;54.30;;;;;;5104634;28;20054;-51
2022/05/03 07:44:42;;;;;;;3.63;1.77;;;22.70;54.30;;;;;;5109092;28;20043;-57
2022/05/03 07:47:09;;;;;;;2.83;1.73;;;22.70;54.40;;;;;;5102148;28;20036;-56
2022/05/03 07:49:35;;;;;;;2.13;1.75;;;22.70;55.00;;;;;;5100180;28;20100;-57
2022/05/03 07:52:01;;;;;;;3.10;1.90;;;22.60;54.40;;;;;;5093696;28;20055;-56
2022/05/03 07:54:27;;;;;;;2.35;1.80;;;22.60;54.40;;;;;;5089042;28;20040;-57
2022/05/03 07:56:53;;;;;;;3.10;1.92;;;22.60;54.40;;;;;;5090369;28;20069;-57
2022/05/03 07:59:23;;;;;;;2.55;1.77;;;22.60;54.40;;;;;;5098580;28;20111;-57
2022/05/03 08:01:49;;;;;;;3.00;2.05;;;22.70;54.40;;;;;;5094726;28;20109;-55
2022/05/03 08:04:15;;;;;;;2.78;1.90;;;22.70;54.50;;;;;;5106224;28;20079;-55
2022/05/03 08:06:41;;;;;;;2.42;1.80;;;22.60;54.40;;;;;;5111661;28;20506;-54
2022/05/03 08:09:07;;;;;;;2.45;2.00;;;22.60;54.50;;;;;;5093716;28;20032;-55
2022/05/03 08:11:33;;;;;;;3.42;1.85;;;22.60;54.50;;;;;;5081433;28;20033;-53
2022/05/03 08:13:59;;;;;;;3.30;1.90;;;22.60;54.50;;;;;;5096294;28;20045;-55
2022/05/03 08:16:27;;;;;;;2.25;1.98;;;22.60;54.50;;;;;;5103257;28;20028;-55
2022/05/03 08:18:52;;;;;;;;;;;22.60;54.50;;;;;;5102173;28;20108;-55
2022/05/03 08:21:19;;;;;;;3.65;1.95;;;22.60;54.60;;;;;;5101852;28;19944;-54
2022/05/03 08:23:45;;;;;;;2.92;2.10;;;22.60;54.70;;;;;;5089605;28;20108;-55
2022/05/03 08:26:11;;;;;;;3.22;2.03;;;22.60;54.70;;;;;;5091650;28;20052;-56
2022/05/03 08:28:37;;;;;;;2.63;1.80;;;22.60;54.80;;;;;;5090399;28;20036;-57
2022/05/03 08:31:03;;;;;;;3.20;2.10;;;22.60;54.90;;;;;;5114194;28;20040;-59
2022/05/03 08:33:30;;;;;;;1.98;1.80;;;22.60;54.90;;;;;;5104500;28;20020;-56
2022/05/03 08:35:56;;;;;;;3.65;2.20;;;22.60;55.00;;;;;;5103815;28;20035;-56
2022/05/03 08:43:51;;;;;;;3.95;2.00;;;22.60;55.10;;;;;;5103572;28;20124;-56
2022/05/03 08:46:18;;;;;;;2.47;1.80;;;22.60;55.10;;;;;;5094310;28;20017;-56
2022/05/03 08:48:44;;;;;;;3.13;2.10;;;22.60;55.20;;;;;;5064316;28;20028;-53
2022/05/03 08:51:13;;;;;;;2.05;1.80;;;22.60;55.20;;;;;;5067886;28;20086;-57
2022/05/03 08:53:40;;;;;;;3.10;2.00;;;22.60;55.10;;;;;;5098892;28;20024;-57
2022/05/03 08:56:06;;;;;;;3.47;2.10;;;22.60;55.10;;;;;;5077480;28;20035;-57
2022/05/03 08:58:33;;;;;;;3.80;2.20;;;22.60;55.10;;;;;;5115779;28;20060;-57
2022/05/03 09:00:59;;;;;;;2.20;2.00;;;22.60;55.10;;;;;;5112736;28;20496;-57
2022/05/03 09:03:25;;;;;;;1.90;1.70;;;22.50;55.10;;;;;;5103091;28;20050;-57
2022/05/03 09:05:52;;;;;;;2.58;2.08;;;22.60;55.10;;;;;;5101391;28;20044;-56
2022/05/03 09:08:22;;;;;;;2.40;2.03;;;22.50;55.10;;;;;;5103984;28;20046;-56
2022/05/03 09:10:49;;;;;;;2.97;1.92;;;22.50;55.10;;;;;;5103191;28;20076;-57
2022/05/03 09:13:22;;;;;;;2.75;2.00;;;22.60;55.10;;;;;;5102149;28;20021;-57
2022/05/03 09:15:55;;;;;;;2.80;2.00;;;22.50;55.10;;;;;;5100445;28;20552;-57
2022/05/03 09:18:28;;;;;;;2.67;2.00;;;22.50;55.00;;;;;;5105184;28;20496;-57
2022/05/03 09:23:54;;;;;;;3.22;2.00;;;22.50;55.00;;;;;;5104276;28;20058;-56
2022/05/03 09:26:24;;;;;;;2.58;2.13;;;22.50;55.00;;;;;;5078440;28;20024;-53
2022/05/03 09:28:55;;;;;;;2.60;1.73;;;22.50;55.00;;;;;;5108123;28;20027;-55
2022/05/03 09:31:42;;;;;;;2.47;1.90;;;22.50;55.10;;;;;;5097038;28;20042;-55
2022/05/03 09:34:19;;;;;;;3.85;1.90;;;22.50;55.10;;;;;;5092946;28;20033;-54
2022/05/03 09:36:56;;;;;;;2.50;2.08;;;22.50;55.10;;;;;;5099169;28;20024;-55
2022/05/03 09:39:32;;;;;;;2.33;2.13;;;22.50;55.00;;;;;;5097574;28;20063;-56
2022/05/03 09:42:12;;;;;;;2.65;2.05;;;22.50;55.00;;;;;;5104563;28;20028;-58
2022/05/03 09:44:50;;;;;;;3.25;2.00;;;22.50;55.10;;;;;;5102124;28;20054;-56
2022/05/03 09:47:17;;;;;;;3.13;2.30;;;22.50;55.10;;;;;;5101872;28;20036;-56
2022/05/03 09:49:43;;;;;;;3.67;2.00;;;22.50;55.10;;;;;;5099045;28;20036;-57
2022/05/03 09:52:22;;;;;;;2.60;1.98;;;22.50;55.10;;;;;;5098319;28;20032;-52
2022/05/03 09:54:49;;;;;;;3.08;2.00;;;22.50;55.00;;;;;;5085007;28;20039;-56
2022/05/03 09:57:18;;;;;;;2.88;2.13;;;22.50;55.20;;;;;;5087742;28;20036;-56
2022/05/03 09:59:44;;;;;;;2.00;1.80;;;22.40;55.30;;;;;;5096898;28;20119;-58
2022/05/03 10:02:10;;;;;;;3.47;2.28;;;22.50;55.30;;;;;;5102061;28;20032;-58
2022/05/03 10:04:36;;;;;;;2.35;1.92;;;22.40;55.30;;;;;;5071531;28;20429;-58
2022/05/03 10:07:03;;;;;;;3.92;2.05;;;22.40;55.30;;;;;;5103153;28;20028;-57
2022/05/03 10:09:29;;;;;;;3.00;2.40;;;22.40;55.20;;;;;;5075140;28;20048;-57
2022/05/03 10:11:55;;;;;;;3.63;2.20;;;22.40;55.20;;;;;;5065013;28;20059;-58
2022/05/03 10:14:21;;;;;;;2.55;2.13;;;22.40;55.20;;;;;;5078844;28;20408;-58
2022/05/03 10:22:17;;;;;;;4.40;2.20;;;22.40;55.20;;;;;;5100076;28;20031;-51
2022/05/03 10:24:55;;;;;;;8.43;2.17;;;22.40;55.60;;;;;;5103885;28;20467;-62
2022/05/03 10:27:25;;;;;;;6.57;2.03;;;22.30;55.80;;;;;;5092742;28;20036;-65
2022/05/03 10:30:20;;;;;;;8.95;2.10;;;22.30;55.80;;;;;;5102451;28;20070;-58
2022/05/03 10:33:25;;;;;;;3.10;2.35;;;22.30;55.80;;;;;;5103612;28;20083;-59
2022/05/03 10:35:51;;;;;;;2.08;1.85;;;22.30;56.50;;;;;;5053684;28;20029;-58
2022/05/03 10:38:36;;;;;;;3.20;2.30;;;22.30;56.10;;;;;;5058240;28;20044;-61
2022/05/03 10:41:02;;;;;;;2.78;2.15;;;22.30;56.00;;;;;;5069165;28;20394;-53
2022/05/03 10:43:28;;;;;;;2.88;2.30;;;22.30;55.80;;;;;;5043252;28;20076;-57
2022/05/03 10:45:55;;;;;;;2.83;2.10;;;22.30;56.00;;;;;;5066491;28;20028;-53
2022/05/03 10:48:31;;;;;;;6.95;2.30;;;22.30;56.00;;;;;;5063749;28;20013;-52
2022/05/03 10:51:01;;;;;;;6.28;2.13;;;22.30;55.90;;;;;;5058286;28;20056;-51
2022/05/03 10:53:36;;;;;;;2.33;1.95;;;22.30;55.80;;;;;;5066937;28;20036;-51
2022/05/03 10:56:12;;;;;;;3.88;2.25;;;22.30;55.80;;;;;;5067881;28;20128;-49
2022/05/03 10:58:40;;;;;;;5.35;1.40;;;22.30;55.90;;;;;;5073762;28;20085;-51
2022/05/03 11:01:20;;;;;;;6.13;2.47;;;22.30;55.80;;;;;;5071494;28;20029;-51
2022/05/03 11:03:51;;;;;;;4.43;1.88;;;22.30;55.70;;;;;;5073175;28;20063;-49
2022/05/03 11:06:25;;;;;;;4.00;2.38;;;22.30;55.60;;;;;;5053756;28;20686;-52
2022/05/03 11:11:38;;;;;;;;;;;22.30;55.50;;;;;;5109634;28;20047;-49
2022/05/03 11:14:27;;;;;;;3.22;2.00;;;22.30;55.50;;;;;;5110443;28;19912;-52
2022/05/03 11:17:05;;;;;;;2.33;2.10;;;22.30;55.30;;;;;;5105136;28;20027;-52
2022/05/03 11:19:32;;;;;;;3.72;2.03;;;22.30;55.30;;;;;;5108917;28;20512;-50
2022/05/03 11:21:58;;;;;;;;;;;22.20;55.20;;;;;;5109531;28;20032;-56
2022/05/03 11:24:32;;;;;;;3.15;2.22;;;22.20;55.30;;;;;;5112731;28;19912;-50
2022/05/03 11:27:00;;;;;;;3.17;1.90;;;22.20;55.20;;;;;;5082836;28;20028;-50
2022/05/03 11:29:35;;;;;;;3.60;2.25;;;22.20;55.20;;;;;;5098174;28;20083;-49
2022/05/03 11:32:01;;;;;;;4.22;2.00;;;22.20;55.10;;;;;;5102440;28;20058;-52
2022/05/03 11:34:28;;;;;;;2.70;2.23;;;22.20;55.10;;;;;;5109302;28;20547;-50
2022/05/03 11:36:54;;;;;;;2.90;2.50;;;22.20;55.20;;;;;;5100773;28;20078;-50
2022/05/03 11:39:21;;;;;;;3.00;2.30;;;22.20;55.10;;;;;;5095022;28;20021;-49
2022/05/03 11:41:47;;;;;;;2.50;2.30;;;22.20;55.10;;;;;;5103153;28;20032;-50
2022/05/03 11:44:14;;;;;;;3.97;2.10;;;22.20;55.10;;;;;;5107207;28;20024;-52
2022/05/03 11:46:41;;;;;;;3.55;1.70;;;22.10;55.10;;;;;;5104346;28;20036;-48
2022/05/03 11:49:11;;;;;;;2.80;2.10;;;22.10;55.10;;;;;;5107959;28;20036;-51
2022/05/03 11:57:10;;;;;;;3.20;2.25;;;22.10;55.10;;;;;;5104125;28;20189;-52
2022/05/03 11:59:36;;;;;;;2.60;2.40;;;22.10;55.00;;;;;;5090920;28;20570;-51
2022/05/03 12:02:20;;;;;;;3.28;2.45;;;22.00;55.00;;;;;;5095193;28;20059;-49
2022/05/03 12:05:04;;;;;;;2.30;2.10;;;22.00;55.00;;;;;;5103890;28;20052;-50
2022/05/03 12:07:40;;;;;;;2.50;2.13;;;22.00;55.00;;;;;;5108589;28;20024;-48
2022/05/03 12:10:22;;;;;;;2.63;2.42;;;22.00;55.00;;;;;;5105248;28;20070;-51
2022/05/03 12:13:07;;;;;;;3.35;2.33;;;22.00;54.90;;;;;;5112311;28;20714;-50
2022/05/03 12:15:39;;;;;;;2.90;2.17;;;22.00;55.10;;;;;;5106107;28;20061;-50
2022/05/03 12:18:23;;;;;;;2.60;2.00;;;22.00;55.00;;;;;;5105742;28;20028;-49
2022/05/03 12:20:55;;;;;;;2.35;2.15;;;22.00;55.00;;;;;;5111372;28;20016;-52
2022/05/03 12:23:23;;;;;;;2.25;2.00;;;22.00;54.90;;;;;;5110074;28;20055;-50
2022/05/03 12:25:53;;;;;;;2.20;2.00;;;22.00;54.90;;;;;;5110320;28;20020;-53
2022/05/03 12:28:20;;;;;;;2.80;2.15;;;22.00;54.90;;;;;;5117250;28;20106;-50
2022/05/03 12:30:55;;;;;;;4.47;2.20;;;21.90;54.90;;;;;;5093264;28;20118;-50
2022/05/03 12:33:21;;;;;;;2.17;1.98;;;21.90;54.90;;;;;;5090100;28;20028;-49
2022/05/03 12:35:48;;;;;;;2.27;1.70;;;21.90;54.90;;;;;;5092891;28;20032;-49
2022/05/03 12:38:15;;;;;;;2.63;2.20;;;21.90;54.90;;;;;;5107325;28;20028;-51
2022/05/03 12:40:46;;;;;;;2.20;1.98;;;21.90;54.80;;;;;;5109842;28;20132;-48
2022/05/03 12:43:16;;;;;;;2.38;2.00;;;21.90;54.80;;;;;;5108324;28;20026;-50
2022/05/03 12:45:54;;;;;;;2.42;2.10;;;21.90;54.80;;;;;;5108016;28;20023;-49
2022/05/03 12:48:20;;;;;;;2.13;1.92;;;21.90;54.90;;;;;;5108223;28;20601;-52
2022/05/03 12:50:47;;;;;;;4.20;2.30;;;21.80;54.80;;;;;;5103486;28;20083;-51
2022/05/03 12:53:14;;;;;;;2.05;1.85;;;21.80;54.90;;;;;;5107218;28;20051;-48
2022/05/03 12:55:40;;;;;;;2.53;2.20;;;21.80;54.80;;;;;;5110220;28;20509;-50
2022/05/03 13:00:52;;;;;;;2.45;1.90;;;21.80;54.80;;;;;;5104971;28;20043;-49
2022/05/03 13:03:18;;;;;;;3.40;2.20;;;21.80;54.80;;;;;;5114818;28;20039;-49
2022/05/03 13:05:44;;;;;;;3.33;2.00;;;21.80;54.90;;;;;;5092577;28;20059;-51
2022/05/03 13:08:10;;;;;;;2.47;2.08;;;21.80;54.90;;;;;;5115077;28;20039;-53
2022/05/03 13:10:38;;;;;;;2.08;1.92;;;21.80;54.90;;;;;;5111047;28;20103;-52
2022/05/03 13:13:04;;;;;;;2.20;1.90;;;21.80;54.90;;;;;;5112522;28;20049;-48
2022/05/03 13:15:31;;;;;;;2.40;2.08;;;21.80;55.00;;;;;;5090854;28;20043;-48
2022/05/03 13:17:57;;;;;;;2.05;1.85;;;21.80;55.00;;;;;;5104505;28;20028;-49
2022/05/03 13:20:24;;;;;;;2.33;2.08;;;21.80;55.00;;;;;;5111311;28;20032;-49
2022/05/03 13:22:50;;;;;;;2.13;1.70;;;21.70;54.90;;;;;;5107734;28;20028;-49
2022/05/03 13:25:17;;;;;;;2.30;2.10;;;21.70;54.90;;;;;;5113055;28;20267;-48
2022/05/03 13:27:43;;;;;;;2.67;2.10;;;21.70;55.00;;;;;;5107215;28;20031;-47
2022/05/03 13:30:10;;;;;;;2.35;2.15;;;21.70;55.00;;;;;;5105694;28;20047;-50
2022/05/03 13:32:36;;;;;;;1.93;1.83;;;21.70;55.00;;;;;;5106403;28;20047;-48
2022/05/03 13:35:02;;;;;;;2.20;1.90;;;21.70;55.00;;;;;;5105152;28;20683;-53
2022/05/03 13:40:33;;;;;;;1.80;1.67;;;21.70;55.00;;;;;;5102606;28;20102;-50